sensor_id;sensor_type;location;lat;lon;timestamp;pressure;altitude;pressure_sealevel;temperature;humidity
38227;BME280;24026;49.446;8.576;2022-11-13T00:01:58;101656.72;;;13.36;58.22
38227;BME280;24026;49.446;8.576;2022-11-13T00:04:18;101651.38;;;13.36;58.24
38227;BME280;24026;49.446;8.576;2022-11-13T00:06:38;101656.50;;;13.37;58.22
38227;BME280;24026;49.446;8.576;2022-11-13T00:08:58;101654.06;;;13.36;58.17
38227;BME280;24026;49.446;8.576;2022-11-13T00:11:19;101653.25;;;13.35;58.25
38227;BME280;24026;49.446;8.576;2022-11-13T00:13:39;101644.41;;;13.34;58.20
38227;BME280;24026;49.446;8.576;2022-11-13T00:16:00;101646.84;;;13.36;58.19
38227;BME280;24026;49.446;8.576;2022-11-13T00:18:21;101646.84;;;13.36;58.27
38227;BME280;24026;49.446;8.576;2022-11-13T00:20:41;101640.69;;;13.36;58.25
38227;BME280;24026;49.446;8.576;2022-11-13T00:23:01;101637.22;;;13.35;58.19
38227;BME280;24026;49.446;8.576;2022-11-13T00:25:22;101634.78;;;13.33;58.19
38227;BME280;24026;49.446;8.576;2022-11-13T00:27:42;101640.94;;;13.34;58.14
38227;BME280;24026;49.446;8.576;2022-11-13T00:30:03;101632.91;;;13.34;58.22
38227;BME280;24026;49.446;8.576;2022-11-13T00:32:23;101644.41;;;13.34;58.09
38227;BME280;24026;49.446;8.576;2022-11-13T00:34:45;101636.38;;;13.34;58.11
38227;BME280;24026;49.446;8.576;2022-11-13T00:37:05;101639.28;;;13.33;58.18
38227;BME280;24026;49.446;8.576;2022-11-13T00:39:25;101627.81;;;13.32;58.13
38227;BME280;24026;49.446;8.576;2022-11-13T00:41:46;101642.78;;;13.33;58.09
38227;BME280;24026;49.446;8.576;2022-11-13T00:44:06;101645.47;;;13.33;58.14
38227;BME280;24026;49.446;8.576;2022-11-13T00:46:26;101640.94;;;13.34;58.18
38227;BME280;24026;49.446;8.576;2022-11-13T00:48:46;101649.16;;;13.32;58.16
38227;BME280;24026;49.446;8.576;2022-11-13T00:51:07;101640.34;;;13.32;58.21
38227;BME280;24026;49.446;8.576;2022-11-13T00:53:27;101644.84;;;13.31;58.30
38227;BME280;24026;49.446;8.576;2022-11-13T00:55:47;101643.81;;;13.32;58.10
38227;BME280;24026;49.446;8.576;2022-11-13T00:58:08;101637.69;;;13.32;58.22
38227;BME280;24026;49.446;8.576;2022-11-13T01:00:28;101637.88;;;13.30;58.15
38227;BME280;24026;49.446;8.576;2022-11-13T01:02:48;101644.84;;;13.31;58.15
38227;BME280;24026;49.446;8.576;2022-11-13T01:05:08;101644.03;;;13.31;58.12
38227;BME280;24026;49.446;8.576;2022-11-13T01:07:29;101644.03;;;13.31;58.25
38227;BME280;24026;49.446;8.576;2022-11-13T01:09:49;101649.16;;;13.32;58.24
38227;BME280;24026;49.446;8.576;2022-11-13T01:12:10;101642.19;;;13.31;58.15
38227;BME280;24026;49.446;8.576;2022-11-13T01:14:30;101642.19;;;13.31;58.17
38227;BME280;24026;49.446;8.576;2022-11-13T01:16:50;101632.53;;;13.30;58.18
38227;BME280;24026;49.446;8.576;2022-11-13T01:19:10;101638.69;;;13.31;58.18
38227;BME280;24026;49.446;8.576;2022-11-13T01:21:31;101634.41;;;13.30;58.10
38227;BME280;24026;49.446;8.576;2022-11-13T01:23:51;101624.75;;;13.29;58.25
38227;BME280;24026;49.446;8.576;2022-11-13T01:26:23;101628.22;;;13.29;58.23
38227;BME280;24026;49.446;8.576;2022-11-13T01:28:43;101618.84;;;13.27;58.24
38227;BME280;24026;49.446;8.576;2022-11-13T01:31:05;101618.59;;;13.28;58.16
38227;BME280;24026;49.446;8.576;2022-11-13T01:33:25;101619.19;;;13.30;58.12
38227;BME280;24026;49.446;8.576;2022-11-13T01:35:45;101614.06;;;13.29;58.12
38227;BME280;24026;49.446;8.576;2022-11-13T01:38:06;101616.75;;;13.29;58.15
38227;BME280;24026;49.446;8.576;2022-11-13T01:40:26;101606.28;;;13.27;58.17
38227;BME280;24026;49.446;8.576;2022-11-13T01:42:46;101607.09;;;13.28;58.10
38227;BME280;24026;49.446;8.576;2022-11-13T01:47:46;101606.28;;;13.27;58.11
38227;BME280;24026;49.446;8.576;2022-11-13T01:50:08;101605.50;;;13.27;58.06
38227;BME280;24026;49.446;8.576;2022-11-13T01:52:35;101600.16;;;13.27;58.03
38227;BME280;24026;49.446;8.576;2022-11-13T01:54:59;101596.66;;;13.26;58.09
38227;BME280;24026;49.446;8.576;2022-11-13T01:57:21;101594.81;;;13.27;57.99
38227;BME280;24026;49.446;8.576;2022-11-13T01:59:43;101591.31;;;13.26;58.02
38227;BME280;24026;49.446;8.576;2022-11-13T02:02:06;101590.28;;;13.27;58.04
38227;BME280;24026;49.446;8.576;2022-11-13T02:04:27;101588.63;;;13.26;58.05
38227;BME280;24026;49.446;8.576;2022-11-13T02:06:48;101581.69;;;13.25;57.93
38227;BME280;24026;49.446;8.576;2022-11-13T02:09:09;101576.34;;;13.25;58.01
38227;BME280;24026;49.446;8.576;2022-11-13T02:11:31;101577.38;;;13.24;58.14
38227;BME280;24026;49.446;8.576;2022-11-13T02:13:52;101579.00;;;13.25;58.09
38227;BME280;24026;49.446;8.576;2022-11-13T02:16:12;101579.25;;;13.24;58.06
38227;BME280;24026;49.446;8.576;2022-11-13T02:18:32;101577.16;;;13.26;58.01
38227;BME280;24026;49.446;8.576;2022-11-13T02:23:23;101574.94;;;13.23;58.06
38227;BME280;24026;49.446;8.576;2022-11-13T02:25:46;101574.72;;;13.24;57.96
38227;BME280;24026;49.446;8.576;2022-11-13T02:28:08;101569.38;;;13.24;58.04
38227;BME280;24026;49.446;8.576;2022-11-13T02:30:30;101564.03;;;13.24;57.95
38227;BME280;24026;49.446;8.576;2022-11-13T02:32:51;101560.56;;;13.24;57.96
38227;BME280;24026;49.446;8.576;2022-11-13T02:35:13;101558.13;;;13.22;58.00
38227;BME280;24026;49.446;8.576;2022-11-13T02:37:34;101557.09;;;13.23;58.12
38227;BME280;24026;49.446;8.576;2022-11-13T02:39:54;101554.63;;;13.22;58.00
38227;BME280;24026;49.446;8.576;2022-11-13T02:42:14;101556.25;;;13.23;58.16
38227;BME280;24026;49.446;8.576;2022-11-13T02:44:34;101550.09;;;13.22;57.94
38227;BME280;24026;49.446;8.576;2022-11-13T02:46:54;101558.13;;;13.22;57.87
38227;BME280;24026;49.446;8.576;2022-11-13T02:49:15;101551.13;;;13.21;57.96
38227;BME280;24026;49.446;8.576;2022-11-13T02:51:35;101558.13;;;13.22;57.95
38227;BME280;24026;49.446;8.576;2022-11-13T02:53:55;101547.66;;;13.21;57.88
38227;BME280;24026;49.446;8.576;2022-11-13T02:56:16;101549.53;;;13.20;57.91
38227;BME280;24026;49.446;8.576;2022-11-13T02:58:36;101546.03;;;13.20;57.81
38227;BME280;24026;49.446;8.576;2022-11-13T03:00:57;101544.19;;;13.20;57.95
38227;BME280;24026;49.446;8.576;2022-11-13T03:03:17;101534.31;;;13.21;57.80
38227;BME280;24026;49.446;8.576;2022-11-13T03:05:37;101535.34;;;13.20;57.91
38227;BME280;24026;49.446;8.576;2022-11-13T03:07:57;101535.59;;;13.18;57.93
38227;BME280;24026;49.446;8.576;2022-11-13T03:10:18;101539.88;;;13.19;57.83
38227;BME280;24026;49.446;8.576;2022-11-13T03:12:38;101537.22;;;13.19;57.82
38227;BME280;24026;49.446;8.576;2022-11-13T03:14:59;101535.59;;;13.18;57.81
38227;BME280;24026;49.446;8.576;2022-11-13T03:17:19;101531.31;;;13.17;57.87
38227;BME280;24026;49.446;8.576;2022-11-13T03:19:40;101524.09;;;13.18;57.85
38227;BME280;24026;49.446;8.576;2022-11-13T03:22:00;101525.97;;;13.17;57.82
38227;BME280;24026;49.446;8.576;2022-11-13T03:24:20;101525.16;;;13.16;57.84
38227;BME280;24026;49.446;8.576;2022-11-13T03:26:40;101521.44;;;13.18;57.83
38227;BME280;24026;49.446;8.576;2022-11-13T03:29:01;101534.19;;;13.15;57.75
38227;BME280;24026;49.446;8.576;2022-11-13T03:31:21;101526.19;;;13.15;57.77
38227;BME280;24026;49.446;8.576;2022-11-13T03:33:41;101521.88;;;13.14;57.84
38227;BME280;24026;49.446;8.576;2022-11-13T03:36:02;101516.53;;;13.14;57.86
38227;BME280;24026;49.446;8.576;2022-11-13T03:38:22;101512.03;;;13.15;57.67
38227;BME280;24026;49.446;8.576;2022-11-13T03:40:42;101513.06;;;13.14;57.62
38227;BME280;24026;49.446;8.576;2022-11-13T03:43:03;101516.53;;;13.14;57.79
38227;BME280;24026;49.446;8.576;2022-11-13T03:45:23;101513.88;;;13.14;57.68
38227;BME280;24026;49.446;8.576;2022-11-13T03:47:43;101512.03;;;13.15;57.67
38227;BME280;24026;49.446;8.576;2022-11-13T03:50:04;101514.94;;;13.13;57.67
38227;BME280;24026;49.446;8.576;2022-11-13T03:52:24;101516.78;;;13.13;57.68
38227;BME280;24026;49.446;8.576;2022-11-13T03:54:44;101514.38;;;13.11;57.68
38227;BME280;24026;49.446;8.576;2022-11-13T03:57:04;101510.88;;;13.11;57.70
38227;BME280;24026;49.446;8.576;2022-11-13T03:59:25;101513.53;;;13.11;57.60
38227;BME280;24026;49.446;8.576;2022-11-13T04:01:45;101509.25;;;13.10;57.73
38227;BME280;24026;49.446;8.576;2022-11-13T04:04:06;101508.41;;;13.09;57.68
38227;BME280;24026;49.446;8.576;2022-11-13T04:06:26;101505.75;;;13.09;57.57
38227;BME280;24026;49.446;8.576;2022-11-13T04:08:46;101501.25;;;13.10;57.67
38227;BME280;24026;49.446;8.576;2022-11-13T04:11:09;101498.56;;;13.10;57.63
38227;BME280;24026;49.446;8.576;2022-11-13T04:13:30;101496.72;;;13.10;57.65
38227;BME280;24026;49.446;8.576;2022-11-13T04:15:50;101501.47;;;13.08;57.46
38227;BME280;24026;49.446;8.576;2022-11-13T04:18:10;101497.97;;;13.08;57.67
38227;BME280;24026;49.446;8.576;2022-11-13T04:20:31;101493.47;;;13.08;57.63
38227;BME280;24026;49.446;8.576;2022-11-13T04:22:51;101494.50;;;13.07;57.61
38227;BME280;24026;49.446;8.576;2022-11-13T04:25:11;101493.69;;;13.07;57.57
38227;BME280;24026;49.446;8.576;2022-11-13T04:27:32;101494.72;;;13.06;57.59
38227;BME280;24026;49.446;8.576;2022-11-13T04:29:52;101492.28;;;13.04;57.53
38227;BME280;24026;49.446;8.576;2022-11-13T04:32:12;101495.78;;;13.05;57.60
38227;BME280;24026;49.446;8.576;2022-11-13T04:34:33;101485.91;;;13.05;57.59
38227;BME280;24026;49.446;8.576;2022-11-13T04:36:53;101486.16;;;13.04;57.30
38227;BME280;24026;49.446;8.576;2022-11-13T04:39:13;101485.13;;;13.05;57.59
38227;BME280;24026;49.446;8.576;2022-11-13T04:41:33;101485.91;;;13.05;57.51
38227;BME280;24026;49.446;8.576;2022-11-13T04:44:12;101473.84;;;13.03;57.59
38227;BME280;24026;49.446;8.576;2022-11-13T04:46:33;101471.16;;;13.03;57.54
38227;BME280;24026;49.446;8.576;2022-11-13T04:48:53;101472.81;;;13.04;57.51
38227;BME280;24026;49.446;8.576;2022-11-13T04:51:13;101477.34;;;13.03;57.45
38227;BME280;24026;49.446;8.576;2022-11-13T04:53:33;101466.66;;;13.03;57.62
38227;BME280;24026;49.446;8.576;2022-11-13T04:55:54;101473.84;;;13.03;57.67
38227;BME280;24026;49.446;8.576;2022-11-13T04:58:14;101463.38;;;13.01;57.47
38227;BME280;24026;49.446;8.576;2022-11-13T05:00:34;101467.69;;;13.02;57.45
38227;BME280;24026;49.446;8.576;2022-11-13T05:02:55;101465.03;;;13.02;57.50
38227;BME280;24026;49.446;8.576;2022-11-13T05:05:15;101461.56;;;13.02;57.42
38227;BME280;24026;49.446;8.576;2022-11-13T05:07:36;101458.06;;;13.01;57.46
38227;BME280;24026;49.446;8.576;2022-11-13T05:09:56;101448.22;;;13.02;57.43
38227;BME280;24026;49.446;8.576;2022-11-13T05:12:17;101438.56;;;13.01;57.50
38227;BME280;24026;49.446;8.576;2022-11-13T05:14:37;101447.38;;;13.01;57.39
38227;BME280;24026;49.446;8.576;2022-11-13T05:16:58;101444.94;;;13.00;57.42
38227;BME280;24026;49.446;8.576;2022-11-13T05:19:18;101437.78;;;13.00;57.29
38227;BME280;24026;49.446;8.576;2022-11-13T05:21:38;101435.31;;;12.98;57.41
38227;BME280;24026;49.446;8.576;2022-11-13T05:23:59;101428.59;;;12.96;57.33
38227;BME280;24026;49.446;8.576;2022-11-13T05:26:19;101430.22;;;12.97;57.34
38227;BME280;24026;49.446;8.576;2022-11-13T05:28:39;101428.34;;;12.97;57.46
38227;BME280;24026;49.446;8.576;2022-11-13T05:33:23;101427.56;;;12.97;57.25
38227;BME280;24026;49.446;8.576;2022-11-13T05:35:43;101431.03;;;12.97;57.30
38227;BME280;24026;49.446;8.576;2022-11-13T05:38:03;101421.41;;;12.96;57.33
38227;BME280;24026;49.446;8.576;2022-11-13T05:40:23;101416.06;;;12.96;57.22
38227;BME280;24026;49.446;8.576;2022-11-13T05:42:44;101420.56;;;12.96;57.21
38227;BME280;24026;49.446;8.576;2022-11-13T05:45:04;101420.56;;;12.96;57.20
38227;BME280;24026;49.446;8.576;2022-11-13T05:47:24;101416.88;;;12.97;57.26
38227;BME280;24026;49.446;8.576;2022-11-13T05:49:44;101417.91;;;12.96;57.24
38227;BME280;24026;49.446;8.576;2022-11-13T05:52:05;101421.63;;;12.95;57.11
38227;BME280;24026;49.446;8.576;2022-11-13T05:54:25;101425.34;;;12.94;57.22
38227;BME280;24026;49.446;8.576;2022-11-13T05:56:45;101415.69;;;12.93;57.21
38227;BME280;24026;49.446;8.576;2022-11-13T05:59:05;101411.44;;;12.92;57.30
38227;BME280;24026;49.446;8.576;2022-11-13T06:01:30;101416.53;;;12.93;57.18
38227;BME280;24026;49.446;8.576;2022-11-13T06:03:51;101413.03;;;12.93;57.10
38227;BME280;24026;49.446;8.576;2022-11-13T06:06:12;101408.53;;;12.93;57.16
38227;BME280;24026;49.446;8.576;2022-11-13T06:08:33;101397.03;;;12.93;57.11
38227;BME280;24026;49.446;8.576;2022-11-13T06:11:03;101396.22;;;12.92;57.12
38227;BME280;24026;49.446;8.576;2022-11-13T06:13:24;101407.69;;;12.93;57.12
38227;BME280;24026;49.446;8.576;2022-11-13T06:15:44;101395.41;;;12.92;57.06
38227;BME280;24026;49.446;8.576;2022-11-13T06:18:05;101389.50;;;12.90;57.06
38227;BME280;24026;49.446;8.576;2022-11-13T06:20:25;101388.44;;;12.91;57.00
38227;BME280;24026;49.446;8.576;2022-11-13T06:22:45;101388.44;;;12.91;57.10
38227;BME280;24026;49.446;8.576;2022-11-13T06:25:05;101384.97;;;12.90;57.07
38227;BME280;24026;49.446;8.576;2022-11-13T06:27:26;101389.75;;;12.88;57.09
38227;BME280;24026;49.446;8.576;2022-11-13T06:29:46;101386.63;;;12.91;57.03
38227;BME280;24026;49.446;8.576;2022-11-13T06:32:06;101380.22;;;12.92;57.03
38227;BME280;24026;49.446;8.576;2022-11-13T06:34:27;101379.63;;;12.90;57.04
38227;BME280;24026;49.446;8.576;2022-11-13T06:36:47;101381.50;;;12.90;56.99
38227;BME280;24026;49.446;8.576;2022-11-13T06:39:08;101386.25;;;12.88;56.99
38227;BME280;24026;49.446;8.576;2022-11-13T06:41:29;101389.50;;;12.90;56.88
38227;BME280;24026;49.446;8.576;2022-11-13T06:43:50;101376.16;;;12.90;56.92
38227;BME280;24026;49.446;8.576;2022-11-13T06:46:11;101377.19;;;12.89;56.83
38227;BME280;24026;49.446;8.576;2022-11-13T06:48:32;101376.63;;;12.87;56.97
38227;BME280;24026;49.446;8.576;2022-11-13T06:50:52;101378.22;;;12.88;57.00
38227;BME280;24026;49.446;8.576;2022-11-13T06:53:13;101372.09;;;12.87;56.84
38227;BME280;24026;49.446;8.576;2022-11-13T06:55:33;101375.78;;;12.86;56.88
38227;BME280;24026;49.446;8.576;2022-11-13T06:57:53;101361.66;;;12.86;56.84
38227;BME280;24026;49.446;8.576;2022-11-13T07:00:14;101369.66;;;12.86;56.74
38227;BME280;24026;49.446;8.576;2022-11-13T07:02:34;101368.84;;;12.85;56.81
38227;BME280;24026;49.446;8.576;2022-11-13T07:04:54;101366.75;;;12.87;56.78
38227;BME280;24026;49.446;8.576;2022-11-13T07:07:15;101362.72;;;12.85;56.77
38227;BME280;24026;49.446;8.576;2022-11-13T07:09:35;101364.56;;;12.84;56.83
38227;BME280;24026;49.446;8.576;2022-11-13T07:11:55;101365.13;;;12.86;56.61
38227;BME280;24026;49.446;8.576;2022-11-13T07:14:15;101360.03;;;12.85;56.73
38227;BME280;24026;49.446;8.576;2022-11-13T07:16:35;101364.31;;;12.86;56.66
38227;BME280;24026;49.446;8.576;2022-11-13T07:18:56;101368.06;;;12.85;56.64
38227;BME280;24026;49.446;8.576;2022-11-13T07:21:16;101369.88;;;12.84;56.65
38227;BME280;24026;49.446;8.576;2022-11-13T07:23:36;101363.97;;;12.82;56.65
38227;BME280;24026;49.446;8.576;2022-11-13T07:26:02;101364.78;;;12.83;56.63
38227;BME280;24026;49.446;8.576;2022-11-13T07:28:22;101366.41;;;12.84;56.45
38227;BME280;24026;49.446;8.576;2022-11-13T07:30:43;101364.78;;;12.83;56.65
38227;BME280;24026;49.446;8.576;2022-11-13T07:33:03;101355.97;;;12.82;56.52
38227;BME280;24026;49.446;8.576;2022-11-13T07:35:23;101362.13;;;12.83;56.54
38227;BME280;24026;49.446;8.576;2022-11-13T07:37:44;101363.75;;;12.84;56.40
38227;BME280;24026;49.446;8.576;2022-11-13T07:40:04;101360.50;;;12.82;56.48
38227;BME280;24026;49.446;8.576;2022-11-13T07:42:25;101361.31;;;12.82;56.41
38227;BME280;24026;49.446;8.576;2022-11-13T07:44:45;101353.31;;;12.82;56.25
38227;BME280;24026;49.446;8.576;2022-11-13T07:47:05;101353.31;;;12.82;56.31
38227;BME280;24026;49.446;8.576;2022-11-13T07:49:26;101360.50;;;12.82;56.33
38227;BME280;24026;49.446;8.576;2022-11-13T07:51:46;101357.84;;;12.82;56.31
38227;BME280;24026;49.446;8.576;2022-11-13T07:54:06;101351.44;;;12.83;56.21
38227;BME280;24026;49.446;8.576;2022-11-13T07:56:26;101354.94;;;12.83;56.29
38227;BME280;24026;49.446;8.576;2022-11-13T07:58:47;101355.19;;;12.82;56.16
38227;BME280;24026;49.446;8.576;2022-11-13T08:01:07;101344.28;;;12.83;56.15
38227;BME280;24026;49.446;8.576;2022-11-13T08:03:27;101350.88;;;12.81;56.27
38227;BME280;24026;49.446;8.576;2022-11-13T08:05:47;101341.84;;;12.82;56.24
38227;BME280;24026;49.446;8.576;2022-11-13T08:08:10;101334.63;;;12.82;56.17
38227;BME280;24026;49.446;8.576;2022-11-13T08:10:30;101335.66;;;12.81;56.16
38227;BME280;24026;49.446;8.576;2022-11-13T08:12:56;101324.75;;;12.83;56.01
38227;BME280;24026;49.446;8.576;2022-11-13T08:15:17;101342.41;;;12.84;56.10
38227;BME280;24026;49.446;8.576;2022-11-13T08:17:37;101334.63;;;12.82;56.14
38227;BME280;24026;49.446;8.576;2022-11-13T08:19:57;101336.50;;;12.82;56.01
38227;BME280;24026;49.446;8.576;2022-11-13T08:22:17;101335.44;;;12.83;56.09
38227;BME280;24026;49.446;8.576;2022-11-13T08:24:38;101332.78;;;12.83;56.00
38227;BME280;24026;49.446;8.576;2022-11-13T08:26:58;101343.66;;;12.81;56.02
38227;BME280;24026;49.446;8.576;2022-11-13T08:29:18;101335.22;;;12.84;56.03
38227;BME280;24026;49.446;8.576;2022-11-13T08:31:38;101329.06;;;12.84;56.05
38227;BME280;24026;49.446;8.576;2022-11-13T08:33:59;101333.59;;;12.83;55.94
38227;BME280;24026;49.446;8.576;2022-11-13T08:36:19;101328.25;;;12.83;55.98
38227;BME280;24026;49.446;8.576;2022-11-13T08:38:39;101339.16;;;12.82;55.89
38227;BME280;24026;49.446;8.576;2022-11-13T08:41:00;101336.50;;;12.82;55.93
38227;BME280;24026;49.446;8.576;2022-11-13T08:43:21;101330.09;;;12.83;55.97
38227;BME280;24026;49.446;8.576;2022-11-13T08:45:41;101327.44;;;12.83;55.94
38227;BME280;24026;49.446;8.576;2022-11-13T08:48:04;101318.63;;;12.82;55.80
38227;BME280;24026;49.446;8.576;2022-11-13T08:50:24;101318.63;;;12.82;55.99
38227;BME280;24026;49.446;8.576;2022-11-13T08:52:44;101319.44;;;12.83;56.04
38227;BME280;24026;49.446;8.576;2022-11-13T08:55:05;101325.59;;;12.83;55.90
38227;BME280;24026;49.446;8.576;2022-11-13T08:57:25;101321.88;;;12.84;55.96
38227;BME280;24026;49.446;8.576;2022-11-13T08:59:46;101318.41;;;12.84;55.88
38227;BME280;24026;49.446;8.576;2022-11-13T09:02:06;101312.25;;;12.83;55.72
38227;BME280;24026;49.446;8.576;2022-11-13T09:04:26;101309.59;;;12.83;55.89
38227;BME280;24026;49.446;8.576;2022-11-13T09:06:47;101312.84;;;12.85;55.53
38227;BME280;24026;49.446;8.576;2022-11-13T09:09:07;101298.69;;;12.85;55.80
38227;BME280;24026;49.446;8.576;2022-11-13T09:11:27;101305.41;;;12.87;55.71
38227;BME280;24026;49.446;8.576;2022-11-13T09:13:47;101301.34;;;12.85;55.66
38227;BME280;24026;49.446;8.576;2022-11-13T09:16:08;101299.50;;;12.85;55.74
38227;BME280;24026;49.446;8.576;2022-11-13T09:18:28;101292.28;;;12.86;55.54
38227;BME280;24026;49.446;8.576;2022-11-13T09:20:49;101291.25;;;12.87;55.60
38227;BME280;24026;49.446;8.576;2022-11-13T09:23:09;101288.81;;;12.85;55.70
38227;BME280;24026;49.446;8.576;2022-11-13T09:25:30;101286.72;;;12.87;55.69
38227;BME280;24026;49.446;8.576;2022-11-13T09:27:51;101302.50;;;12.89;55.47
38227;BME280;24026;49.446;8.576;2022-11-13T09:30:12;101289.16;;;12.89;55.55
38227;BME280;24026;49.446;8.576;2022-11-13T09:32:32;101289.16;;;12.89;55.58
38227;BME280;24026;49.446;8.576;2022-11-13T09:34:52;101280.13;;;12.90;55.58
38227;BME280;24026;49.446;8.576;2022-11-13T09:37:13;101271.28;;;12.89;55.55
38227;BME280;24026;49.446;8.576;2022-11-13T09:39:34;101263.03;;;12.91;55.58
38227;BME280;24026;49.446;8.576;2022-11-13T09:41:56;101261.44;;;12.90;55.52
38227;BME280;24026;49.446;8.576;2022-11-13T09:45:03;101268.38;;;12.91;55.55
38227;BME280;24026;49.446;8.576;2022-11-13T09:47:07;101259.56;;;12.90;55.53
38227;BME280;24026;49.446;8.576;2022-11-13T09:49:33;101256.66;;;12.92;55.32
38227;BME280;24026;49.446;8.576;2022-11-13T09:51:55;101255.88;;;12.91;55.46
38227;BME280;24026;49.446;8.576;2022-11-13T09:54:16;101245.19;;;12.91;55.33
38227;BME280;24026;49.446;8.576;2022-11-13T09:56:42;101246.81;;;12.92;55.34
38227;BME280;24026;49.446;8.576;2022-11-13T10:01:33;101240.44;;;12.93;55.42
38227;BME280;24026;49.446;8.576;2022-11-13T10:03:57;101228.69;;;12.94;55.30
38227;BME280;24026;49.446;8.576;2022-11-13T10:14:00;101209.78;;;12.96;55.25
38227;BME280;24026;49.446;8.576;2022-11-13T10:18:47;101222.88;;;12.97;55.13
38227;BME280;24026;49.446;8.576;2022-11-13T10:24:00;101218.38;;;12.98;55.18
38227;BME280;24026;49.446;8.576;2022-11-13T10:26:25;101219.97;;;12.99;55.15
38227;BME280;24026;49.446;8.576;2022-11-13T10:28:45;101215.44;;;13.00;55.17
38227;BME280;24026;49.446;8.576;2022-11-13T10:31:10;101210.72;;;13.02;55.12
38227;BME280;24026;49.446;8.576;2022-11-13T10:33:31;101208.03;;;13.02;55.10
38227;BME280;24026;49.446;8.576;2022-11-13T10:35:58;101215.44;;;13.00;55.06
38227;BME280;24026;49.446;8.576;2022-11-13T10:40:41;101197.38;;;13.02;55.08
38227;BME280;24026;49.446;8.576;2022-11-13T10:45:32;101168.56;;;13.04;54.96
38227;BME280;24026;49.446;8.576;2022-11-13T10:47:52;101166.47;;;13.06;54.90
38227;BME280;24026;49.446;8.576;2022-11-13T10:50:22;101166.47;;;13.06;54.80
38227;BME280;24026;49.446;8.576;2022-11-13T10:52:44;101167.28;;;13.06;54.85
38227;BME280;24026;49.446;8.576;2022-11-13T10:55:11;101169.94;;;13.06;54.77
38227;BME280;24026;49.446;8.576;2022-11-13T10:57:33;101165.19;;;13.08;54.84
38227;BME280;24026;49.446;8.576;2022-11-13T10:59:53;101158.78;;;13.09;54.69
38227;BME280;24026;49.446;8.576;2022-11-13T11:04:34;101148.72;;;13.11;54.63
38227;BME280;24026;49.446;8.576;2022-11-13T11:06:54;101161.78;;;13.13;54.68
38227;BME280;24026;49.446;8.576;2022-11-13T11:09:25;101162.63;;;13.13;54.66
38227;BME280;24026;49.446;8.576;2022-11-13T11:17:18;101144.50;;;13.15;54.60
38227;BME280;24026;49.446;8.576;2022-11-13T11:19:40;101144.25;;;13.17;54.56
38227;BME280;24026;49.446;8.576;2022-11-13T11:22:07;101146.13;;;13.16;54.57
38227;BME280;24026;49.446;8.576;2022-11-13T11:24:30;101153.63;;;13.20;54.53
38227;BME280;24026;49.446;8.576;2022-11-13T11:26:58;101144.81;;;13.19;54.52
38227;BME280;24026;49.446;8.576;2022-11-13T11:29:24;101137.38;;;13.21;54.43
38227;BME280;24026;49.446;8.576;2022-11-13T11:31:50;101122.19;;;13.22;54.42
38227;BME280;24026;49.446;8.576;2022-11-13T11:34:14;101121.13;;;13.23;54.49
38227;BME280;24026;49.446;8.576;2022-11-13T11:42:14;101127.84;;;13.25;54.33
38227;BME280;24026;49.446;8.576;2022-11-13T11:44:27;101125.19;;;13.25;54.38
38227;BME280;24026;49.446;8.576;2022-11-13T11:46:50;101131.88;;;13.28;54.37
38227;BME280;24026;49.446;8.576;2022-11-13T11:49:10;101124.72;;;13.28;54.39
38227;BME280;24026;49.446;8.576;2022-11-13T12:01:18;101094.03;;;13.31;54.22
38227;BME280;24026;49.446;8.576;2022-11-13T12:08:38;101061.78;;;13.32;54.33
38227;BME280;24026;49.446;8.576;2022-11-13T12:13:42;101045.78;;;13.32;54.23
38227;BME280;24026;49.446;8.576;2022-11-13T12:21:00;101019.16;;;13.38;54.07
38227;BME280;24026;49.446;8.576;2022-11-13T12:25:54;101002.09;;;13.39;54.10
38227;BME280;24026;49.446;8.576;2022-11-13T12:28:28;100994.88;;;13.39;54.15
38227;BME280;24026;49.446;8.576;2022-11-13T12:33:43;100989.03;;;13.42;54.18
38227;BME280;24026;49.446;8.576;2022-11-13T12:36:07;100977.56;;;13.42;54.26
38227;BME280;24026;49.446;8.576;2022-11-13T12:38:33;100986.94;;;13.44;54.10
38227;BME280;24026;49.446;8.576;2022-11-13T12:45:49;100955.19;;;13.48;54.18
38227;BME280;24026;49.446;8.576;2022-11-13T12:50:33;100953.13;;;13.50;54.07
38227;BME280;24026;49.446;8.576;2022-11-13T12:53:00;100952.03;;;13.51;54.03
38227;BME280;24026;49.446;8.576;2022-11-13T12:55:27;100939.25;;;13.53;54.01
38227;BME280;24026;49.446;8.576;2022-11-13T12:57:48;100936.31;;;13.55;54.13
38227;BME280;24026;49.446;8.576;2022-11-13T13:00:24;100931.81;;;13.55;54.11
38227;BME280;24026;49.446;8.576;2022-11-13T13:07:48;100924.91;;;13.59;54.05
38227;BME280;24026;49.446;8.576;2022-11-13T13:10:19;100930.81;;;13.61;54.04
38227;BME280;24026;49.446;8.576;2022-11-13T13:17:44;100921.00;;;13.67;53.99
38227;BME280;24026;49.446;8.576;2022-11-13T13:20:23;100917.25;;;13.68;54.01
38227;BME280;24026;49.446;8.576;2022-11-13T13:22:53;100910.06;;;13.68;53.93
38227;BME280;24026;49.446;8.576;2022-11-13T13:25:25;100914.09;;;13.71;53.99
38227;BME280;24026;49.446;8.576;2022-11-13T13:27:54;100905.84;;;13.73;53.99
38227;BME280;24026;49.446;8.576;2022-11-13T13:30:16;100908.25;;;13.74;53.90
38227;BME280;24026;49.446;8.576;2022-11-13T13:32:59;100900.78;;;13.76;53.99
38227;BME280;24026;49.446;8.576;2022-11-13T13:35:21;100894.41;;;13.77;54.03
38227;BME280;24026;49.446;8.576;2022-11-13T13:37:47;100884.53;;;13.78;54.13
38227;BME280;24026;49.446;8.576;2022-11-13T13:47:23;100865.06;;;13.82;53.90
38227;BME280;24026;49.446;8.576;2022-11-13T13:49:45;100866.69;;;13.83;54.02
38227;BME280;24026;49.446;8.576;2022-11-13T13:52:05;100868.28;;;13.84;53.82
38227;BME280;24026;49.446;8.576;2022-11-13T13:54:26;100862.94;;;13.84;53.91